Time;durP1;ratioP1;P1;durP2;ratioP2;P2;SDS_P1;SDS_P2;PMS_P1;PMS_P2;Temp;Humidity;BMP_temperature;BMP_pressure;BME280_temperature;BME280_humidity;BME280_pressure;Samples;Min_cycle;Max_cycle;Signal;HPM_P1;HPM_P2
2024/03/16 00:01:17;;;;;;;0.90;0.20;;;11.50;99.90;;;;;;4993147;28;20026;-80
2024/03/16 00:03:43;;;;;;;0.20;0.10;;;11.50;99.90;;;;;;4992404;28;20049;-81
2024/03/16 00:06:09;;;;;;;1.02;0.28;;;11.50;99.90;;;;;;4993340;28;20030;-81
2024/03/16 00:08:34;;;;;;;0.20;0.20;;;11.50;99.90;;;;;;4993100;28;20027;-81
2024/03/16 00:11:00;;;;;;;1.60;0.25;;;11.40;99.90;;;;;;4993747;28;20034;-81
2024/03/16 00:13:25;;;;;;;1.00;0.20;;;11.40;99.90;;;;;;4993537;28;20084;-82
2024/03/16 00:15:51;;;;;;;0.85;0.20;;;11.40;99.90;;;;;;4993201;28;20034;-81
2024/03/16 00:18:16;;;;;;;0.30;0.15;;;11.40;99.90;;;;;;4993221;28;20034;-81
2024/03/16 00:20:42;;;;;;;0.10;0.10;;;11.40;99.90;;;;;;4992831;28;20066;-81
2024/03/16 00:23:08;;;;;;;1.88;0.25;;;11.30;99.90;;;;;;4994491;28;20476;-81
2024/03/16 00:25:34;;;;;;;1.65;0.30;;;11.40;99.90;;;;;;4993063;28;20030;-81
2024/03/16 00:27:59;;;;;;;0.52;0.25;;;11.30;99.90;;;;;;4993879;28;20029;-81
2024/03/16 00:30:26;;;;;;;1.65;0.25;;;11.30;99.90;;;;;;4992836;28;20033;-81
2024/03/16 00:32:51;;;;;;;2.00;0.22;;;11.30;99.90;;;;;;4993178;28;20044;-81
2024/03/16 00:35:17;;;;;;;0.38;0.20;;;11.20;99.90;;;;;;4993061;28;20483;-80
2024/03/16 00:37:43;;;;;;;1.98;0.10;;;11.20;99.90;;;;;;4994327;28;20023;-81
2024/03/16 00:40:09;;;;;;;0.50;0.30;;;11.20;99.90;;;;;;4994340;28;20049;-83
2024/03/16 00:42:35;;;;;;;0.20;0.20;;;11.20;99.90;;;;;;4992907;28;20058;-81
2024/03/16 00:45:02;;;;;;;5.47;0.20;;;11.20;99.90;;;;;;4993017;28;20121;-81
2024/03/16 00:47:28;;;;;;;0.15;0.10;;;11.20;99.90;;;;;;4992879;28;20033;-81
2024/03/16 00:49:53;;;;;;;1.08;0.40;;;11.20;99.90;;;;;;4994316;28;20117;-81
2024/03/16 00:52:19;;;;;;;0.45;0.15;;;11.20;99.90;;;;;;4994280;28;20054;-80
2024/03/16 00:54:44;;;;;;;1.20;0.25;;;11.30;99.90;;;;;;4992717;28;20582;-81
2024/03/16 00:57:10;;;;;;;0.88;0.20;;;11.30;99.90;;;;;;4993356;28;20061;-80
2024/03/16 00:59:36;;;;;;;1.85;0.10;;;11.30;99.90;;;;;;4993707;28;20060;-81
2024/03/16 01:02:03;;;;;;;0.20;0.15;;;11.40;99.90;;;;;;4993971;28;20026;-81
2024/03/16 01:04:32;;;;;;;0.30;0.10;;;11.30;99.90;;;;;;4994135;28;20045;-82
2024/03/16 01:06:58;;;;;;;0.70;0.10;;;11.30;99.90;;;;;;4993340;28;20033;-83
2024/03/16 01:09:25;;;;;;;1.15;0.20;;;11.40;99.90;;;;;;4994414;28;20026;-83
2024/03/16 01:11:51;;;;;;;0.75;0.20;;;11.30;99.90;;;;;;4993888;28;20031;-83
2024/03/16 01:14:16;;;;;;;0.20;0.10;;;11.30;99.90;;;;;;4994055;28;20027;-83
2024/03/16 01:16:42;;;;;;;0.47;0.20;;;11.30;99.90;;;;;;4992408;28;20423;-83
2024/03/16 01:19:07;;;;;;;1.95;0.30;;;11.30;99.90;;;;;;4993014;28;20026;-83
2024/03/16 01:21:33;;;;;;;0.17;0.17;;;11.30;99.90;;;;;;4992871;28;20081;-82
2024/03/16 01:23:58;;;;;;;0.20;0.20;;;11.30;99.90;;;;;;4994185;28;20045;-83
2024/03/16 01:26:24;;;;;;;1.70;0.20;;;11.30;99.90;;;;;;4992607;28;20464;-83
2024/03/16 01:28:50;;;;;;;1.42;0.30;;;11.30;99.90;;;;;;4992874;28;20045;-83
2024/03/16 01:31:17;;;;;;;1.98;0.20;;;11.30;99.90;;;;;;4993915;28;20018;-83
2024/03/16 01:33:42;;;;;;;0.17;0.10;;;11.30;99.90;;;;;;4993162;28;20034;-83
2024/03/16 01:36:08;;;;;;;0.30;0.20;;;11.30;99.90;;;;;;4995925;28;20061;-83
2024/03/16 01:38:33;;;;;;;0.43;0.20;;;11.30;99.90;;;;;;4996576;28;20030;-82
2024/03/16 01:40:59;;;;;;;0.80;0.77;;;11.40;99.90;;;;;;4996415;28;20053;-83
2024/03/16 01:43:25;;;;;;;1.73;0.25;;;11.40;99.90;;;;;;4996549;28;20368;-83
2024/03/16 01:45:50;;;;;;;0.85;0.20;;;11.40;99.90;;;;;;4995677;28;20125;-83
2024/03/16 01:48:16;;;;;;;0.45;0.10;;;11.40;99.90;;;;;;4996471;28;20026;-83
2024/03/16 01:50:43;;;;;;;1.83;0.30;;;11.40;99.90;;;;;;4995899;28;20057;-83
2024/03/16 01:53:12;;;;;;;0.32;0.20;;;11.40;99.90;;;;;;4996369;28;20532;-81
2024/03/16 01:55:38;;;;;;;1.70;0.30;;;11.40;99.90;;;;;;4995766;28;20416;-81
2024/03/16 01:58:07;;;;;;;0.68;0.20;;;11.40;99.90;;;;;;4997371;28;20057;-81
2024/03/16 02:00:34;;;;;;;3.05;0.60;;;11.40;99.90;;;;;;4996739;28;20022;-81
2024/03/16 02:03:00;;;;;;;0.93;0.20;;;11.40;99.90;;;;;;4995560;28;20026;-81
2024/03/16 02:05:26;;;;;;;0.55;0.25;;;11.40;99.90;;;;;;4995796;28;20039;-80
2024/03/16 02:07:51;;;;;;;0.88;0.40;;;11.40;99.90;;;;;;4995406;28;20027;-81
2024/03/16 02:10:18;;;;;;;1.08;0.30;;;11.40;99.90;;;;;;4997028;28;20064;-81
2024/03/16 02:12:44;;;;;;;1.80;0.30;;;11.40;99.90;;;;;;4995138;28;20031;-81
2024/03/16 02:15:10;;;;;;;1.58;0.57;;;11.40;99.90;;;;;;4996892;28;20057;-81
2024/03/16 02:17:36;;;;;;;2.65;0.30;;;11.30;99.90;;;;;;4995369;28;20030;-81
2024/03/16 02:20:09;;;;;;;0.55;0.30;;;11.30;99.90;;;;;;4996973;28;20030;-81
2024/03/16 02:22:38;;;;;;;1.40;0.35;;;11.30;99.90;;;;;;4996410;28;20018;-82
2024/03/16 02:25:04;;;;;;;0.60;0.30;;;11.20;99.90;;;;;;4995952;28;20088;-81
2024/03/16 02:27:29;;;;;;;1.95;0.57;;;11.20;99.90;;;;;;4995523;28;20026;-81
2024/03/16 02:29:55;;;;;;;1.33;0.40;;;11.20;99.90;;;;;;4995506;28;20037;-81
2024/03/16 02:32:20;;;;;;;1.17;0.43;;;11.10;99.90;;;;;;4995657;28;20510;-82
2024/03/16 02:34:47;;;;;;;1.75;0.40;;;11.10;99.90;;;;;;4994754;28;20054;-82
2024/03/16 02:37:12;;;;;;;0.40;0.40;;;11.10;99.90;;;;;;4996562;28;20113;-81
2024/03/16 02:39:38;;;;;;;0.80;0.45;;;11.00;99.90;;;;;;4994858;28;20510;-81
2024/03/16 02:42:04;;;;;;;0.80;0.30;;;11.00;99.90;;;;;;4995555;28;20037;-81
2024/03/16 02:44:30;;;;;;;1.65;0.70;;;11.00;99.90;;;;;;4996343;28;20034;-80
2024/03/16 02:46:57;;;;;;;0.77;0.35;;;10.90;99.90;;;;;;4995193;28;20029;-83
2024/03/16 02:49:23;;;;;;;0.68;0.30;;;10.90;99.90;;;;;;4995317;28;20030;-83
2024/03/16 02:51:49;;;;;;;0.63;0.30;;;10.90;99.90;;;;;;4995858;28;20037;-83
2024/03/16 02:54:16;;;;;;;3.42;0.40;;;10.90;99.90;;;;;;4994991;28;20027;-79
2024/03/16 02:56:41;;;;;;;2.17;0.50;;;10.90;99.90;;;;;;4995244;28;20035;-80
2024/03/16 02:59:09;;;;;;;0.50;0.30;;;10.80;99.90;;;;;;4994709;28;20361;-80
2024/03/16 03:01:36;;;;;;;1.20;0.40;;;10.80;99.90;;;;;;4994386;28;20030;-81
2024/03/16 03:04:03;;;;;;;3.15;0.40;;;10.80;99.90;;;;;;4994824;28;20030;-81
2024/03/16 03:06:29;;;;;;;0.30;0.30;;;10.80;99.90;;;;;;4994613;28;20035;-80
2024/03/16 03:08:54;;;;;;;1.80;0.30;;;10.80;99.90;;;;;;4995616;28;20023;-80
2024/03/16 03:11:20;;;;;;;0.45;0.20;;;10.80;99.90;;;;;;4996270;28;20456;-80
2024/03/16 03:13:50;;;;;;;1.30;0.30;;;10.70;99.90;;;;;;4995294;28;20112;-81
2024/03/16 03:16:24;;;;;;;0.75;0.30;;;10.70;99.90;;;;;;4994824;28;20116;-80
2024/03/16 03:18:51;;;;;;;1.33;0.40;;;10.70;99.90;;;;;;4994160;28;20034;-81
2024/03/16 03:21:17;;;;;;;0.45;0.25;;;10.70;99.90;;;;;;4994722;28;20073;-81
2024/03/16 03:23:43;;;;;;;0.30;0.30;;;10.70;99.90;;;;;;4994382;28;20113;-81
2024/03/16 03:26:09;;;;;;;0.45;0.32;;;10.70;99.90;;;;;;4995741;28;20066;-81
2024/03/16 03:28:35;;;;;;;1.75;0.40;;;10.70;99.90;;;;;;4994419;28;20030;-82
2024/03/16 03:31:06;;;;;;;0.75;0.30;;;10.70;99.90;;;;;;4995481;28;20026;-81
2024/03/16 03:33:32;;;;;;;1.23;0.40;;;10.70;99.90;;;;;;4995265;28;20065;-81
2024/03/16 03:35:59;;;;;;;0.88;0.30;;;10.60;99.90;;;;;;4994977;28;20085;-81
2024/03/16 03:38:25;;;;;;;0.63;0.30;;;10.60;99.90;;;;;;4994588;28;20053;-82
2024/03/16 03:40:50;;;;;;;1.55;0.32;;;10.60;99.90;;;;;;4994277;28;20414;-81
2024/03/16 03:43:22;;;;;;;0.52;0.38;;;10.60;99.90;;;;;;4994471;28;20543;-81
2024/03/16 03:45:54;;;;;;;0.45;0.20;;;10.60;99.90;;;;;;4993977;28;20411;-81
2024/03/16 03:50:52;;;;;;;1.20;0.30;;;10.60;99.90;;;;;;4994955;28;20030;-81
2024/03/16 03:53:19;;;;;;;0.47;0.30;;;10.60;99.90;;;;;;4994199;28;20429;-82
2024/03/16 03:55:45;;;;;;;1.83;0.32;;;10.50;99.90;;;;;;4993564;28;20027;-81
2024/03/16 03:58:11;;;;;;;1.80;0.30;;;10.50;99.90;;;;;;4995290;28;20038;-81
2024/03/16 04:00:37;;;;;;;1.30;0.30;;;10.50;99.90;;;;;;4993558;28;20029;-80
2024/03/16 04:03:06;;;;;;;2.50;0.65;;;10.50;99.90;;;;;;4993484;28;20022;-81
2024/03/16 04:05:32;;;;;;;1.27;0.30;;;10.50;99.90;;;;;;4993368;28;20494;-81
2024/03/16 04:07:58;;;;;;;0.30;0.20;;;10.50;99.90;;;;;;4994456;28;20112;-80
2024/03/16 04:10:23;;;;;;;0.93;0.30;;;10.50;99.90;;;;;;4994204;28;20065;-81
2024/03/16 04:12:49;;;;;;;2.10;0.73;;;10.50;99.90;;;;;;4993367;28;20031;-81
2024/03/16 04:15:15;;;;;;;0.85;0.47;;;10.50;99.90;;;;;;4993824;28;20030;-82
2024/03/16 04:17:40;;;;;;;0.47;0.20;;;10.50;99.90;;;;;;4993454;28;20038;-81
2024/03/16 04:20:09;;;;;;;17.52;0.82;;;10.50;99.90;;;;;;4993506;28;20026;-81
2024/03/16 04:22:36;;;;;;;1.10;0.40;;;10.50;99.90;;;;;;4993781;28;20030;-81
2024/03/16 04:25:03;;;;;;;1.17;0.28;;;10.50;99.90;;;;;;4993268;28;20056;-80
2024/03/16 04:27:29;;;;;;;2.58;0.30;;;10.50;99.90;;;;;;4993552;28;20034;-80
2024/03/16 04:29:55;;;;;;;0.63;0.30;;;10.40;99.90;;;;;;4994257;28;20026;-80
2024/03/16 04:32:26;;;;;;;0.35;0.22;;;10.40;99.90;;;;;;4993490;28;20506;-80
2024/03/16 04:34:54;;;;;;;7.15;1.08;;;10.40;99.90;;;;;;4992767;28;20085;-80
2024/03/16 04:37:21;;;;;;;1.35;0.40;;;10.40;99.90;;;;;;4993338;28;20038;-80
2024/03/16 04:39:47;;;;;;;2.45;0.40;;;10.40;99.90;;;;;;4993039;28;20117;-80
2024/03/16 04:42:13;;;;;;;1.85;0.30;;;10.40;99.90;;;;;;4993520;28;20117;-80
2024/03/16 04:44:40;;;;;;;0.75;0.30;;;10.40;99.90;;;;;;4994029;28;20030;-82
2024/03/16 04:47:05;;;;;;;1.13;0.50;;;10.40;99.90;;;;;;4993372;28;20030;-79
2024/03/16 04:49:31;;;;;;;0.40;0.17;;;10.40;99.90;;;;;;4993560;28;20125;-79
2024/03/16 04:51:57;;;;;;;1.38;0.20;;;10.40;99.90;;;;;;4993263;28;20122;-80
2024/03/16 04:54:23;;;;;;;1.65;0.38;;;10.40;99.90;;;;;;4993525;28;20037;-80
2024/03/16 04:56:49;;;;;;;1.90;0.28;;;10.40;99.90;;;;;;4993273;28;20107;-80
2024/03/16 04:59:14;;;;;;;0.52;0.20;;;10.40;99.90;;;;;;4994954;28;20031;-80
2024/03/16 05:01:40;;;;;;;1.00;0.30;;;10.40;99.90;;;;;;4993001;28;20116;-80
2024/03/16 05:04:06;;;;;;;1.58;0.40;;;10.40;99.90;;;;;;4993998;28;20395;-79
2024/03/16 05:06:32;;;;;;;0.75;0.20;;;10.40;99.90;;;;;;4994461;28;20030;-80
2024/03/16 05:08:58;;;;;;;0.30;0.20;;;10.40;99.90;;;;;;4995336;28;20105;-80
2024/03/16 05:11:23;;;;;;;2.22;0.30;;;10.50;99.90;;;;;;4998466;28;20065;-80
2024/03/16 05:13:49;;;;;;;1.17;0.32;;;10.40;99.90;;;;;;4997920;28;20452;-80
2024/03/16 05:16:15;;;;;;;1.48;0.40;;;10.50;99.90;;;;;;4998320;28;20038;-80
2024/03/16 05:18:41;;;;;;;0.20;0.20;;;10.40;99.90;;;;;;4997329;28;20030;-80
2024/03/16 05:21:08;;;;;;;2.13;0.60;;;10.40;99.90;;;;;;4996974;28;20026;-81
2024/03/16 05:23:34;;;;;;;0.57;0.30;;;10.40;99.90;;;;;;4997254;28;20031;-80
2024/03/16 05:25:59;;;;;;;0.17;0.17;;;10.50;99.90;;;;;;4996382;28;20510;-80
2024/03/16 05:28:25;;;;;;;1.38;0.43;;;10.50;99.90;;;;;;4997231;28;20022;-80
2024/03/16 05:30:54;;;;;;;1.25;0.20;;;10.50;99.90;;;;;;4996874;28;20065;-80
2024/03/16 05:33:20;;;;;;;1.27;0.28;;;10.40;99.90;;;;;;4997829;28;20057;-80
2024/03/16 05:35:46;;;;;;;1.05;0.40;;;10.50;99.90;;;;;;4996482;28;20088;-81
2024/03/16 05:38:11;;;;;;;0.75;0.20;;;10.50;99.90;;;;;;4998189;28;20027;-80
2024/03/16 05:40:43;;;;;;;1.02;0.30;;;10.50;99.90;;;;;;4997839;28;20110;-79
2024/03/16 05:43:09;;;;;;;1.23;0.28;;;10.50;99.90;;;;;;4996699;28;20073;-79
2024/03/16 05:45:35;;;;;;;1.13;0.20;;;10.40;99.90;;;;;;4997623;28;20030;-80
2024/03/16 05:48:00;;;;;;;2.83;0.38;;;10.50;99.90;;;;;;4995777;28;20057;-80
2024/03/16 05:50:26;;;;;;;0.38;0.20;;;10.50;99.90;;;;;;4996085;28;20125;-80
2024/03/16 05:52:51;;;;;;;0.85;0.65;;;10.50;99.90;;;;;;4995909;28;20027;-80
2024/03/16 05:55:17;;;;;;;0.40;0.30;;;10.50;99.90;;;;;;4996803;28;20514;-80
2024/03/16 05:57:42;;;;;;;1.48;0.30;;;10.50;99.90;;;;;;4997746;28;20037;-80
2024/03/16 06:00:14;;;;;;;0.60;0.60;;;10.50;99.90;;;;;;4997061;28;20031;-81
2024/03/16 06:02:40;;;;;;;;;;;10.50;99.90;;;;;;4996752;28;20062;-80
2024/03/16 06:05:06;;;;;;;1.05;0.30;;;10.50;99.90;;;;;;4996151;28;19960;-79
2024/03/16 06:07:32;;;;;;;0.75;0.32;;;10.60;99.90;;;;;;4995556;28;20119;-79
2024/03/16 06:09:57;;;;;;;0.80;0.30;;;10.60;99.90;;;;;;4996414;28;20086;-80
2024/03/16 06:12:30;;;;;;;2.28;0.30;;;10.60;99.90;;;;;;4995631;28;20027;-79
2024/03/16 06:14:56;;;;;;;0.43;0.40;;;10.60;99.90;;;;;;4995538;28;20050;-80
2024/03/16 06:17:22;;;;;;;1.23;0.30;;;10.60;99.90;;;;;;4995910;28;20035;-80
2024/03/16 06:19:49;;;;;;;0.75;0.35;;;10.60;99.90;;;;;;4995092;28;20141;-81
2024/03/16 06:22:16;;;;;;;1.33;0.40;;;10.60;99.90;;;;;;4996698;28;20026;-80
2024/03/16 06:24:42;;;;;;;1.83;0.60;;;10.70;99.90;;;;;;4996372;28;20486;-80
2024/03/16 06:27:10;;;;;;;1.55;0.43;;;10.70;99.90;;;;;;4997061;28;20081;-80
2024/03/16 06:29:36;;;;;;;0.90;0.57;;;10.70;99.90;;;;;;4997102;28;20060;-80
2024/03/16 06:32:08;;;;;;;3.75;0.82;;;10.70;99.90;;;;;;4996475;28;20030;-80
2024/03/16 06:34:34;;;;;;;2.83;1.20;;;10.70;99.90;;;;;;4995125;28;20077;-80
2024/03/16 06:37:01;;;;;;;2.25;0.70;;;10.70;99.90;;;;;;4996887;28;20026;-80
2024/03/16 06:39:26;;;;;;;2.90;0.90;;;10.70;99.90;;;;;;4997023;28;20034;-79
2024/03/16 06:41:53;;;;;;;3.42;0.90;;;10.70;99.90;;;;;;4995534;28;20026;-79
2024/03/16 06:44:18;;;;;;;2.03;0.85;;;10.70;99.90;;;;;;4995719;28;20396;-80
2024/03/16 06:46:44;;;;;;;1.30;0.73;;;10.70;99.90;;;;;;4996826;28;20018;-80
2024/03/16 06:49:10;;;;;;;2.55;0.60;;;10.70;99.90;;;;;;4995161;28;20030;-80
2024/03/16 06:51:35;;;;;;;1.20;0.68;;;10.80;99.90;;;;;;4995837;28;20065;-80
2024/03/16 06:54:01;;;;;;;3.28;0.70;;;10.80;99.90;;;;;;4995203;28;20038;-80
2024/03/16 06:56:26;;;;;;;4.70;0.88;;;10.80;99.90;;;;;;4995605;28;20031;-80
2024/03/16 06:58:52;;;;;;;4.20;0.90;;;10.90;99.90;;;;;;4996380;28;20468;-80
2024/03/16 07:01:18;;;;;;;3.72;1.05;;;10.90;99.90;;;;;;4995221;28;20031;-80
2024/03/16 07:03:44;;;;;;;2.55;0.60;;;10.90;99.90;;;;;;4996611;28;20034;-80
2024/03/16 07:06:09;;;;;;;3.95;0.70;;;10.90;99.90;;;;;;4995259;28;20038;-80
2024/03/16 07:08:38;;;;;;;3.78;0.73;;;10.90;99.90;;;;;;4995631;28;20022;-80
2024/03/16 07:11:07;;;;;;;1.48;0.68;;;10.90;99.90;;;;;;4994935;28;20027;-79
2024/03/16 07:13:32;;;;;;;3.17;0.80;;;10.90;99.90;;;;;;4996258;28;20054;-79
2024/03/16 07:15:58;;;;;;;3.72;1.10;;;10.90;99.90;;;;;;4995358;28;20026;-79
2024/03/16 07:18:23;;;;;;;4.80;1.10;;;11.00;99.90;;;;;;4996026;28;20030;-79
2024/03/16 07:20:49;;;;;;;2.10;1.10;;;11.10;99.90;;;;;;4994731;28;20088;-80
2024/03/16 07:23:15;;;;;;;1.83;0.98;;;11.10;99.90;;;;;;4996104;28;20487;-79
2024/03/16 07:25:43;;;;;;;6.13;1.20;;;11.20;99.90;;;;;;4995061;28;20039;-79
2024/03/16 07:28:09;;;;;;;2.85;1.00;;;11.20;99.90;;;;;;4994076;28;20262;-79
2024/03/16 07:30:35;;;;;;;2.63;1.05;;;11.30;99.90;;;;;;4994502;28;20091;-79
2024/03/16 07:33:02;;;;;;;4.72;1.08;;;11.40;99.90;;;;;;4994858;28;20030;-79
2024/03/16 07:35:28;;;;;;;3.75;1.17;;;11.40;99.90;;;;;;4995716;28;20051;-80
2024/03/16 07:37:55;;;;;;;3.67;1.20;;;11.50;99.90;;;;;;4994438;28;20414;-81
2024/03/16 07:40:21;;;;;;;3.08;0.80;;;11.60;99.90;;;;;;4994549;28;20133;-80
2024/03/16 07:42:47;;;;;;;3.65;0.90;;;11.70;99.90;;;;;;4995310;28;20064;-80
2024/03/16 07:45:14;;;;;;;7.00;1.15;;;11.70;99.90;;;;;;4994008;28;20050;-81
2024/03/16 07:47:40;;;;;;;3.95;0.80;;;11.60;99.90;;;;;;4994634;28;20026;-81
2024/03/16 07:50:06;;;;;;;6.28;0.90;;;11.60;99.90;;;;;;4993648;28;20117;-80
2024/03/16 07:52:33;;;;;;;2.40;0.80;;;11.70;99.90;;;;;;4994168;28;20022;-78
2024/03/16 07:54:59;;;;;;;2.13;0.70;;;11.70;99.90;;;;;;4994496;28;20035;-79
2024/03/16 07:57:27;;;;;;;3.95;0.68;;;11.70;99.90;;;;;;4994174;28;20460;-79
2024/03/16 07:59:53;;;;;;;3.17;0.70;;;11.80;99.90;;;;;;4994513;28;20041;-80
2024/03/16 08:02:18;;;;;;;5.03;1.00;;;11.80;99.90;;;;;;4993898;28;20026;-82
2024/03/16 08:04:44;;;;;;;2.70;0.70;;;11.90;99.90;;;;;;4993966;28;20038;-80
2024/03/16 08:07:09;;;;;;;3.63;0.70;;;11.90;99.90;;;;;;4993813;28;20054;-80
2024/03/16 08:09:35;;;;;;;2.75;0.70;;;12.00;99.90;;;;;;4994923;28;20027;-83
2024/03/16 08:12:00;;;;;;;5.57;0.90;;;12.00;99.90;;;;;;4993725;28;20070;-82
2024/03/16 08:14:32;;;;;;;3.28;1.00;;;12.10;99.90;;;;;;4995393;28;20392;-82
2024/03/16 08:16:57;;;;;;;4.28;0.60;;;12.10;99.90;;;;;;4993570;28;20086;-80
2024/03/16 08:19:23;;;;;;;3.28;0.68;;;12.10;99.90;;;;;;4994759;28;20069;-79
2024/03/16 08:21:49;;;;;;;1.52;0.80;;;12.20;99.90;;;;;;4993783;28;20026;-81
2024/03/16 08:24:16;;;;;;;4.63;0.70;;;12.30;99.90;;;;;;4994595;28;20057;-80
2024/03/16 08:26:41;;;;;;;2.42;0.57;;;12.30;99.90;;;;;;4993511;28;20031;-80
2024/03/16 08:29:07;;;;;;;2.78;0.80;;;12.40;99.90;;;;;;4993189;28;20030;-81
2024/03/16 08:31:33;;;;;;;2.63;0.60;;;12.40;99.90;;;;;;4993826;28;20066;-81
2024/03/16 08:33:59;;;;;;;1.00;0.45;;;12.30;99.90;;;;;;4987242;28;20096;-78
2024/03/16 08:36:24;;;;;;;2.83;0.60;;;12.30;99.90;;;;;;4993512;28;20078;-79
2024/03/16 08:38:50;;;;;;;4.40;0.70;;;12.30;99.90;;;;;;4977171;28;20510;-79
2024/03/16 08:41:15;;;;;;;3.35;0.57;;;12.20;99.90;;;;;;4993107;28;20068;-78
2024/03/16 08:43:41;;;;;;;1.95;0.40;;;12.20;99.90;;;;;;4993476;28;20375;-78
2024/03/16 08:46:06;;;;;;;4.88;0.68;;;12.20;99.90;;;;;;4993594;28;20030;-78
2024/03/16 08:48:32;;;;;;;0.65;0.35;;;12.20;99.90;;;;;;4979134;28;20037;-79
2024/03/16 08:50:59;;;;;;;1.48;0.50;;;12.20;99.90;;;;;;4993527;28;20026;-78
2024/03/16 08:53:26;;;;;;;1.90;0.50;;;12.30;99.90;;;;;;4992420;28;20468;-79
2024/03/16 08:55:56;;;;;;;0.77;0.40;;;12.30;99.90;;;;;;4992687;28;20400;-82
2024/03/16 08:58:24;;;;;;;1.75;0.45;;;12.30;99.90;;;;;;4993227;28;20023;-79
2024/03/16 09:00:51;;;;;;;1.50;0.40;;;12.30;99.90;;;;;;4994228;28;20050;-78
2024/03/16 09:03:17;;;;;;;2.25;0.38;;;12.40;99.90;;;;;;4993431;28;20022;-78
2024/03/16 09:05:42;;;;;;;2.58;0.55;;;12.50;99.90;;;;;;4976027;28;20468;-77
2024/03/16 09:08:08;;;;;;;1.00;0.20;;;12.50;99.90;;;;;;4975454;28;20045;-78
2024/03/16 09:10:34;;;;;;;1.83;0.50;;;12.60;99.90;;;;;;4993732;28;20056;-78
2024/03/16 09:12:59;;;;;;;0.55;0.20;;;12.60;99.90;;;;;;4975700;28;20518;-79
2024/03/16 09:15:25;;;;;;;4.32;0.40;;;12.70;99.90;;;;;;4976460;28;20034;-77
2024/03/16 09:17:50;;;;;;;0.75;0.22;;;12.70;99.90;;;;;;4976392;28;20050;-77
2024/03/16 09:20:16;;;;;;;2.47;0.30;;;12.80;99.90;;;;;;4992844;28;20034;-82
2024/03/16 09:22:42;;;;;;;1.83;0.38;;;12.90;99.90;;;;;;4976365;28;20033;-76
2024/03/16 09:25:08;;;;;;;1.50;0.50;;;13.00;99.90;;;;;;4975086;28;20030;-77
2024/03/16 09:27:34;;;;;;;1.40;0.40;;;13.00;99.90;;;;;;4993010;28;20045;-76
2024/03/16 09:30:00;;;;;;;2.53;0.47;;;13.10;99.90;;;;;;4993295;28;20050;-78
2024/03/16 09:32:26;;;;;;;0.70;0.40;;;13.10;99.90;;;;;;4976315;28;20411;-79
2024/03/16 09:34:52;;;;;;;3.40;0.65;;;13.10;99.90;;;;;;4993178;28;20081;-78
2024/03/16 09:37:18;;;;;;;2.40;0.60;;;13.10;99.90;;;;;;4976649;28;20047;-79
2024/03/16 09:39:43;;;;;;;2.47;0.50;;;13.10;99.90;;;;;;4975967;28;20030;-76
2024/03/16 09:42:10;;;;;;;1.25;0.35;;;13.10;99.90;;;;;;4998135;28;20026;-77
2024/03/16 09:44:36;;;;;;;1.13;0.30;;;13.10;99.90;;;;;;4992280;28;20163;-77
2024/03/16 09:47:10;;;;;;;1.63;0.40;;;13.20;99.90;;;;;;4974772;28;20471;-77
2024/03/16 09:49:36;;;;;;;2.35;0.30;;;13.30;99.90;;;;;;4984448;28;20026;-81
2024/03/16 09:52:05;;;;;;;0.22;0.20;;;13.30;99.90;;;;;;5003465;28;20050;-78
2024/03/16 09:54:37;;;;;;;1.42;0.40;;;13.30;99.90;;;;;;5006831;28;20471;-78
2024/03/16 09:57:03;;;;;;;0.88;0.22;;;13.40;99.90;;;;;;4979460;28;20049;-76
2024/03/16 09:59:29;;;;;;;2.33;0.50;;;13.40;99.90;;;;;;5003884;28;20514;-76
2024/03/16 10:01:56;;;;;;;1.05;0.30;;;13.50;99.90;;;;;;5006446;28;20014;-78
2024/03/16 10:04:22;;;;;;;0.68;0.20;;;13.60;99.90;;;;;;4989373;28;20112;-75
2024/03/16 10:06:47;;;;;;;1.05;0.40;;;13.60;99.90;;;;;;4990828;28;20042;-74
2024/03/16 10:09:15;;;;;;;1.20;0.43;;;13.70;99.90;;;;;;4995448;28;20034;-77
2024/03/16 10:11:44;;;;;;;1.70;0.50;;;13.80;99.90;;;;;;4995529;28;20075;-75
2024/03/16 10:14:11;;;;;;;0.50;0.43;;;13.80;99.90;;;;;;4995058;28;20472;-76
2024/03/16 10:16:40;;;;;;;1.25;0.17;;;13.80;99.90;;;;;;4996137;28;20062;-78
2024/03/16 10:19:07;;;;;;;0.85;0.32;;;13.80;99.90;;;;;;4978966;28;20033;-77
2024/03/16 10:21:33;;;;;;;0.45;0.10;;;13.70;99.90;;;;;;4979063;28;20157;-81
2024/03/16 10:23:59;;;;;;;0.55;0.40;;;13.60;99.90;;;;;;4978403;28;20062;-79
2024/03/16 10:26:30;;;;;;;0.40;0.30;;;13.80;99.90;;;;;;4996247;28;20053;-78
2024/03/16 10:28:59;;;;;;;1.00;0.30;;;14.00;99.90;;;;;;4979067;28;20356;-82
2024/03/16 10:31:26;;;;;;;1.98;0.28;;;14.10;99.90;;;;;;4996414;28;20061;-79
2024/03/16 10:33:53;;;;;;;0.40;0.40;;;14.20;99.90;;;;;;4978227;28;20506;-77
2024/03/16 10:36:19;;;;;;;0.30;0.30;;;14.20;99.90;;;;;;4977795;28;20062;-77
2024/03/16 10:38:45;;;;;;;0.30;0.20;;;14.20;99.90;;;;;;4978331;28;20133;-76
2024/03/16 10:41:11;;;;;;;0.82;0.20;;;14.20;99.90;;;;;;4978078;28;20031;-77
2024/03/16 10:43:38;;;;;;;1.77;0.50;;;14.20;99.90;;;;;;4977915;28;20030;-75
2024/03/16 10:46:09;;;;;;;1.38;0.28;;;14.00;99.90;;;;;;4977307;28;20052;-75
2024/03/16 10:48:35;;;;;;;1.08;0.13;;;14.00;99.90;;;;;;4995470;28;20033;-75
2024/03/16 10:51:04;;;;;;;0.30;0.20;;;14.10;99.90;;;;;;4977320;28;20038;-77
2024/03/16 10:53:30;;;;;;;0.60;0.30;;;14.10;99.90;;;;;;4977839;28;20057;-76
2024/03/16 10:55:56;;;;;;;0.88;0.30;;;14.10;99.90;;;;;;4975798;28;20480;-77
2024/03/16 10:58:27;;;;;;;0.17;0.17;;;14.10;99.90;;;;;;4994409;28;20034;-76
2024/03/16 11:01:07;;;;;;;0.52;0.20;;;14.00;99.90;;;;;;4993883;28;20026;-75
2024/03/16 11:03:38;;;;;;;0.80;0.20;;;14.00;99.90;;;;;;4977521;28;20077;-76
2024/03/16 11:06:11;;;;;;;0.57;0.17;;;14.00;99.90;;;;;;4994492;28;20463;-76
2024/03/16 11:08:51;;;;;;;0.38;0.20;;;14.20;99.90;;;;;;4977375;28;20125;-75
2024/03/16 11:11:21;;;;;;;1.83;0.30;;;14.40;99.90;;;;;;4993471;28;20019;-76
2024/03/16 11:13:56;;;;;;;1.13;0.30;;;14.50;99.90;;;;;;4994082;28;20078;-76
2024/03/16 11:16:28;;;;;;;0.20;0.20;;;14.40;99.90;;;;;;4993857;28;20472;-75
2024/03/16 11:19:01;;;;;;;0.98;0.20;;;14.40;99.90;;;;;;4995246;28;20023;-77
2024/03/16 11:21:28;;;;;;;1.10;0.30;;;14.60;99.90;;;;;;4994907;28;20126;-78
2024/03/16 11:24:02;;;;;;;0.88;0.30;;;14.60;99.90;;;;;;4994507;28;20027;-82
2024/03/16 11:26:27;;;;;;;0.20;0.20;;;14.60;99.90;;;;;;4993184;28;20053;-76
2024/03/16 11:29:03;;;;;;;1.70;0.32;;;14.60;99.90;;;;;;4993524;28;20097;-76
2024/03/16 11:31:39;;;;;;;1.05;0.43;;;14.50;99.90;;;;;;4993101;28;20038;-76
2024/03/16 11:34:19;;;;;;;1.30;0.30;;;14.40;99.90;;;;;;4992627;28;20065;-76
2024/03/16 11:36:55;;;;;;;0.40;0.40;;;14.40;99.90;;;;;;4993612;28;20141;-76
2024/03/16 11:39:29;;;;;;;0.43;0.22;;;14.40;99.90;;;;;;4992261;28;20031;-77
2024/03/16 11:41:59;;;;;;;0.40;0.40;;;14.50;99.90;;;;;;4993815;28;20033;-80
2024/03/16 11:44:25;;;;;;;0.10;0.10;;;14.50;99.90;;;;;;4994004;28;20023;-80
2024/03/16 11:46:53;;;;;;;1.85;0.20;;;14.40;99.90;;;;;;4993707;28;20034;-77
2024/03/16 11:49:19;;;;;;;0.17;0.10;;;14.40;99.90;;;;;;4992693;28;20029;-77
2024/03/16 11:51:49;;;;;;;0.25;0.10;;;14.40;99.90;;;;;;4994771;28;20030;-77
2024/03/16 11:54:17;;;;;;;0.10;0.10;;;14.50;99.90;;;;;;4992769;28;20030;-76
2024/03/16 11:56:44;;;;;;;0.10;0.10;;;14.60;99.90;;;;;;4984200;28;20038;-76
2024/03/16 11:59:14;;;;;;;0.17;0.17;;;14.60;99.90;;;;;;4993865;28;20030;-76
2024/03/16 12:01:42;;;;;;;0.20;0.10;;;14.60;99.90;;;;;;4987966;28;20087;-77
2024/03/16 12:04:12;;;;;;;0.20;0.20;;;14.50;99.90;;;;;;4994039;28;20023;-81
2024/03/16 12:06:39;;;;;;;0.35;0.10;;;14.60;99.90;;;;;;4994164;28;20161;-77
2024/03/16 12:09:13;;;;;;;0.20;0.15;;;14.60;99.90;;;;;;4993752;28;20026;-79
2024/03/16 12:11:44;;;;;;;0.20;0.10;;;14.60;99.90;;;;;;4993477;28;20027;-77
2024/03/16 12:14:10;;;;;;;0.63;0.20;;;14.70;99.90;;;;;;4993397;28;20096;-80
2024/03/16 12:16:40;;;;;;;0.10;0.10;;;14.80;99.90;;;;;;4993358;28;20151;-81
2024/03/16 12:19:13;;;;;;;0.20;0.13;;;14.80;99.90;;;;;;4992775;28;20045;-80
2024/03/16 12:21:48;;;;;;;0.88;0.15;;;14.70;99.90;;;;;;4992563;28;20041;-79
2024/03/16 12:24:19;;;;;;;0.10;0.10;;;14.70;99.90;;;;;;4993457;28;20023;-77
2024/03/16 12:26:45;;;;;;;0.20;0.10;;;14.70;99.90;;;;;;4992648;28;20068;-77
2024/03/16 12:29:21;;;;;;;1.13;0.15;;;14.90;99.90;;;;;;4992106;28;20039;-78
2024/03/16 12:31:56;;;;;;;1.90;0.20;;;15.30;99.90;;;;;;4993811;28;20027;-77
2024/03/16 12:34:24;;;;;;;0.17;0.13;;;15.70;99.90;;;;;;4975355;28;20104;-76
2024/03/16 12:36:50;;;;;;;0.20;0.20;;;16.00;99.90;;;;;;4976645;28;20126;-81
2024/03/16 12:39:16;;;;;;;0.10;0.10;;;16.00;99.90;;;;;;4976144;28;20058;-80
2024/03/16 12:41:42;;;;;;;0.10;0.10;;;16.20;99.90;;;;;;4994052;28;20027;-81
2024/03/16 12:44:10;;;;;;;0.30;0.10;;;16.40;99.90;;;;;;4975898;28;20033;-80
2024/03/16 12:46:36;;;;;;;0.10;0.10;;;16.20;99.90;;;;;;4975791;28;20045;-78
2024/03/16 12:49:02;;;;;;;0.10;0.10;;;15.90;99.90;;;;;;4975872;28;20023;-78